sensor_id;sensor_type;location;lat;lon;timestamp;P1;durP1;ratioP1;P2;durP2;ratioP2
62030;SDS011;62035;52.094;5.112;2023-07-20T00:00:28;6.55;;;4.32;;
62030;SDS011;62035;52.094;5.112;2023-07-20T00:03:10;10.10;;;4.38;;
62030;SDS011;62035;52.094;5.112;2023-07-20T00:05:42;6.35;;;4.00;;
62030;SDS011;62035;52.094;5.112;2023-07-20T00:08:10;6.05;;;3.72;;
62030;SDS011;62035;52.094;5.112;2023-07-20T00:10:39;7.18;;;4.35;;
62030;SDS011;62035;52.094;5.112;2023-07-20T00:13:08;6.15;;;4.25;;
62030;SDS011;62035;52.094;5.112;2023-07-20T00:15:35;6.22;;;4.30;;
62030;SDS011;62035;52.094;5.112;2023-07-20T00:18:03;6.95;;;4.28;;
62030;SDS011;62035;52.094;5.112;2023-07-20T00:20:33;7.32;;;3.92;;
62030;SDS011;62035;52.094;5.112;2023-07-20T00:23:00;5.45;;;3.50;;
62030;SDS011;62035;52.094;5.112;2023-07-20T00:25:28;4.50;;;3.05;;
62030;SDS011;62035;52.094;5.112;2023-07-20T00:27:56;4.20;;;2.83;;
62030;SDS011;62035;52.094;5.112;2023-07-20T00:30:23;5.47;;;3.10;;
62030;SDS011;62035;52.094;5.112;2023-07-20T00:32:51;4.32;;;2.83;;
62030;SDS011;62035;52.094;5.112;2023-07-20T00:35:19;3.50;;;2.65;;
62030;SDS011;62035;52.094;5.112;2023-07-20T00:37:48;4.95;;;2.60;;
62030;SDS011;62035;52.094;5.112;2023-07-20T00:40:16;4.38;;;2.00;;
62030;SDS011;62035;52.094;5.112;2023-07-20T00:42:43;3.10;;;2.25;;
62030;SDS011;62035;52.094;5.112;2023-07-20T00:45:11;2.92;;;1.70;;
62030;SDS011;62035;52.094;5.112;2023-07-20T00:47:39;3.10;;;1.70;;
62030;SDS011;62035;52.094;5.112;2023-07-20T00:50:08;3.85;;;1.60;;
62030;SDS011;62035;52.094;5.112;2023-07-20T00:52:37;4.30;;;1.45;;
62030;SDS011;62035;52.094;5.112;2023-07-20T00:55:08;2.75;;;1.55;;
62030;SDS011;62035;52.094;5.112;2023-07-20T01:00:05;2.15;;;1.50;;
62030;SDS011;62035;52.094;5.112;2023-07-20T01:02:35;2.50;;;1.70;;
62030;SDS011;62035;52.094;5.112;2023-07-20T01:05:02;2.05;;;1.55;;
62030;SDS011;62035;52.094;5.112;2023-07-20T01:07:34;3.35;;;1.60;;
62030;SDS011;62035;52.094;5.112;2023-07-20T01:10:09;2.10;;;1.40;;
62030;SDS011;62035;52.094;5.112;2023-07-20T01:12:46;2.30;;;1.58;;
62030;SDS011;62035;52.094;5.112;2023-07-20T01:15:18;2.00;;;1.45;;
62030;SDS011;62035;52.094;5.112;2023-07-20T01:17:46;2.88;;;1.67;;
62030;SDS011;62035;52.094;5.112;2023-07-20T01:20:14;2.60;;;1.50;;
62030;SDS011;62035;52.094;5.112;2023-07-20T01:22:50;3.13;;;1.55;;
62030;SDS011;62035;52.094;5.112;2023-07-20T01:26:01;2.30;;;1.70;;
62030;SDS011;62035;52.094;5.112;2023-07-20T01:28:49;3.35;;;1.70;;
62030;SDS011;62035;52.094;5.112;2023-07-20T01:31:49;2.88;;;1.70;;
62030;SDS011;62035;52.094;5.112;2023-07-20T01:34:21;4.53;;;1.70;;
62030;SDS011;62035;52.094;5.112;2023-07-20T01:36:52;3.25;;;1.65;;
62030;SDS011;62035;52.094;5.112;2023-07-20T01:39:22;5.72;;;1.88;;
62030;SDS011;62035;52.094;5.112;2023-07-20T01:41:51;3.05;;;1.73;;
62030;SDS011;62035;52.094;5.112;2023-07-20T01:44:19;3.28;;;1.95;;
62030;SDS011;62035;52.094;5.112;2023-07-20T01:46:47;4.47;;;2.00;;
62030;SDS011;62035;52.094;5.112;2023-07-20T01:49:16;3.35;;;2.03;;
62030;SDS011;62035;52.094;5.112;2023-07-20T01:51:44;4.47;;;2.03;;
62030;SDS011;62035;52.094;5.112;2023-07-20T01:54:11;7.22;;;3.35;;
62030;SDS011;62035;52.094;5.112;2023-07-20T01:56:39;3.80;;;2.10;;
62030;SDS011;62035;52.094;5.112;2023-07-20T01:59:06;3.92;;;1.92;;
62030;SDS011;62035;52.094;5.112;2023-07-20T02:01:34;3.90;;;2.10;;
62030;SDS011;62035;52.094;5.112;2023-07-20T02:04:02;4.10;;;2.25;;
62030;SDS011;62035;52.094;5.112;2023-07-20T02:06:31;7.70;;;2.40;;
62030;SDS011;62035;52.094;5.112;2023-07-20T02:08:58;5.25;;;2.22;;
62030;SDS011;62035;52.094;5.112;2023-07-20T02:11:26;3.75;;;2.15;;
62030;SDS011;62035;52.094;5.112;2023-07-20T02:13:54;3.03;;;2.03;;
62030;SDS011;62035;52.094;5.112;2023-07-20T02:16:21;3.63;;;1.85;;
62030;SDS011;62035;52.094;5.112;2023-07-20T02:18:49;3.53;;;2.00;;
62030;SDS011;62035;52.094;5.112;2023-07-20T02:21:17;5.05;;;2.40;;
62030;SDS011;62035;52.094;5.112;2023-07-20T02:23:46;6.13;;;2.55;;
62030;SDS011;62035;52.094;5.112;2023-07-20T02:26:13;11.13;;;2.65;;
62030;SDS011;62035;52.094;5.112;2023-07-20T02:28:41;3.22;;;2.25;;
62030;SDS011;62035;52.094;5.112;2023-07-20T02:31:08;3.28;;;2.20;;
62030;SDS011;62035;52.094;5.112;2023-07-20T02:33:36;5.22;;;2.63;;
62030;SDS011;62035;52.094;5.112;2023-07-20T02:36:04;3.75;;;2.55;;
62030;SDS011;62035;52.094;5.112;2023-07-20T02:38:32;6.15;;;3.05;;
62030;SDS011;62035;52.094;5.112;2023-07-20T02:41:01;6.97;;;2.78;;
62030;SDS011;62035;52.094;5.112;2023-07-20T02:43:28;4.75;;;3.00;;
62030;SDS011;62035;52.094;5.112;2023-07-20T02:45:56;5.22;;;3.33;;
62030;SDS011;62035;52.094;5.112;2023-07-20T02:48:24;4.85;;;3.30;;
62030;SDS011;62035;52.094;5.112;2023-07-20T02:50:51;4.00;;;3.17;;
62030;SDS011;62035;52.094;5.112;2023-07-20T02:53:19;7.22;;;3.30;;
62030;SDS011;62035;52.094;5.112;2023-07-20T02:55:47;6.10;;;3.25;;
62030;SDS011;62035;52.094;5.112;2023-07-20T02:58:16;6.82;;;3.90;;
62030;SDS011;62035;52.094;5.112;2023-07-20T03:00:43;4.65;;;3.53;;
62030;SDS011;62035;52.094;5.112;2023-07-20T03:03:11;7.13;;;4.53;;
62030;SDS011;62035;52.094;5.112;2023-07-20T03:05:40;5.00;;;3.85;;
62030;SDS011;62035;52.094;5.112;2023-07-20T03:08:08;6.70;;;4.50;;
62030;SDS011;62035;52.094;5.112;2023-07-20T03:10:38;8.35;;;4.07;;
62030;SDS011;62035;52.094;5.112;2023-07-20T03:13:07;5.70;;;4.28;;
62030;SDS011;62035;52.094;5.112;2023-07-20T03:15:36;7.45;;;4.70;;
62030;SDS011;62035;52.094;5.112;2023-07-20T03:18:04;7.80;;;4.82;;
62030;SDS011;62035;52.094;5.112;2023-07-20T03:20:31;7.43;;;4.88;;
62030;SDS011;62035;52.094;5.112;2023-07-20T03:22:59;7.10;;;4.57;;
62030;SDS011;62035;52.094;5.112;2023-07-20T03:25:27;7.45;;;4.90;;
62030;SDS011;62035;52.094;5.112;2023-07-20T03:27:54;6.10;;;4.28;;
62030;SDS011;62035;52.094;5.112;2023-07-20T03:30:22;7.50;;;4.85;;
62030;SDS011;62035;52.094;5.112;2023-07-20T03:32:51;6.25;;;4.93;;
62030;SDS011;62035;52.094;5.112;2023-07-20T03:35:18;7.50;;;5.00;;
62030;SDS011;62035;52.094;5.112;2023-07-20T03:37:46;5.88;;;4.60;;
62030;SDS011;62035;52.094;5.112;2023-07-20T03:40:14;6.70;;;5.05;;
62030;SDS011;62035;52.094;5.112;2023-07-20T03:42:41;7.90;;;5.05;;
62030;SDS011;62035;52.094;5.112;2023-07-20T03:45:09;9.52;;;5.20;;
62030;SDS011;62035;52.094;5.112;2023-07-20T03:47:37;6.93;;;4.78;;
62030;SDS011;62035;52.094;5.112;2023-07-20T03:50:07;6.97;;;4.72;;
62030;SDS011;62035;52.094;5.112;2023-07-20T03:52:36;8.90;;;5.57;;
62030;SDS011;62035;52.094;5.112;2023-07-20T03:55:04;8.27;;;5.00;;
62030;SDS011;62035;52.094;5.112;2023-07-20T03:57:32;7.05;;;4.90;;
62030;SDS011;62035;52.094;5.112;2023-07-20T04:00:00;6.88;;;5.00;;
62030;SDS011;62035;52.094;5.112;2023-07-20T04:02:28;7.53;;;4.80;;
62030;SDS011;62035;52.094;5.112;2023-07-20T04:04:55;6.32;;;4.70;;
62030;SDS011;62035;52.094;5.112;2023-07-20T04:07:24;8.38;;;5.07;;
62030;SDS011;62035;52.094;5.112;2023-07-20T04:09:52;6.75;;;5.07;;
62030;SDS011;62035;52.094;5.112;2023-07-20T04:12:20;7.60;;;4.72;;
62030;SDS011;62035;52.094;5.112;2023-07-20T04:14:47;9.48;;;5.20;;
62030;SDS011;62035;52.094;5.112;2023-07-20T04:17:15;7.13;;;4.93;;
62030;SDS011;62035;52.094;5.112;2023-07-20T04:19:42;7.47;;;4.95;;
62030;SDS011;62035;52.094;5.112;2023-07-20T04:22:10;7.35;;;5.03;;
62030;SDS011;62035;52.094;5.112;2023-07-20T04:24:41;6.32;;;4.63;;
62030;SDS011;62035;52.094;5.112;2023-07-20T04:27:09;8.48;;;5.88;;
62030;SDS011;62035;52.094;5.112;2023-07-20T04:29:37;7.85;;;5.25;;
62030;SDS011;62035;52.094;5.112;2023-07-20T04:32:05;10.60;;;5.07;;
62030;SDS011;62035;52.094;5.112;2023-07-20T04:34:34;8.00;;;4.90;;
62030;SDS011;62035;52.094;5.112;2023-07-20T04:37:03;7.20;;;4.95;;
62030;SDS011;62035;52.094;5.112;2023-07-20T04:39:31;7.32;;;5.30;;
62030;SDS011;62035;52.094;5.112;2023-07-20T04:42:00;8.55;;;5.00;;
62030;SDS011;62035;52.094;5.112;2023-07-20T04:44:28;7.70;;;5.28;;
62030;SDS011;62035;52.094;5.112;2023-07-20T04:46:55;7.43;;;5.15;;
62030;SDS011;62035;52.094;5.112;2023-07-20T04:49:23;7.10;;;5.30;;
62030;SDS011;62035;52.094;5.112;2023-07-20T04:51:51;7.85;;;5.25;;
62030;SDS011;62035;52.094;5.112;2023-07-20T04:54:18;6.55;;;4.88;;
62030;SDS011;62035;52.094;5.112;2023-07-20T04:56:46;8.55;;;4.57;;
62030;SDS011;62035;52.094;5.112;2023-07-20T04:59:15;6.70;;;4.60;;
62030;SDS011;62035;52.094;5.112;2023-07-20T05:01:43;6.28;;;4.20;;
62030;SDS011;62035;52.094;5.112;2023-07-20T05:04:10;5.80;;;3.88;;
62030;SDS011;62035;52.094;5.112;2023-07-20T05:06:38;6.05;;;3.50;;
62030;SDS011;62035;52.094;5.112;2023-07-20T05:09:05;5.18;;;3.40;;
62030;SDS011;62035;52.094;5.112;2023-07-20T05:11:33;6.22;;;3.35;;
62030;SDS011;62035;52.094;5.112;2023-07-20T05:14:01;5.63;;;2.88;;
62030;SDS011;62035;52.094;5.112;2023-07-20T05:16:30;8.32;;;2.80;;
62030;SDS011;62035;52.094;5.112;2023-07-20T05:18:57;3.83;;;2.45;;
62030;SDS011;62035;52.094;5.112;2023-07-20T05:21:25;4.53;;;1.92;;
62030;SDS011;62035;52.094;5.112;2023-07-20T05:23:53;3.33;;;1.90;;
62030;SDS011;62035;52.094;5.112;2023-07-20T05:26:20;3.83;;;1.48;;
62030;SDS011;62035;52.094;5.112;2023-07-20T05:28:48;6.40;;;1.60;;
62030;SDS011;62035;52.094;5.112;2023-07-20T05:31:16;4.10;;;1.60;;
62030;SDS011;62035;52.094;5.112;2023-07-20T05:33:45;2.65;;;1.50;;
62030;SDS011;62035;52.094;5.112;2023-07-20T05:36:12;2.30;;;1.30;;
62030;SDS011;62035;52.094;5.112;2023-07-20T05:38:40;1.63;;;1.00;;
62030;SDS011;62035;52.094;5.112;2023-07-20T05:41:08;2.17;;;1.23;;
62030;SDS011;62035;52.094;5.112;2023-07-20T05:43:36;3.55;;;1.17;;
62030;SDS011;62035;52.094;5.112;2023-07-20T05:46:03;3.22;;;1.27;;
62030;SDS011;62035;52.094;5.112;2023-07-20T05:48:31;2.30;;;1.10;;
62030;SDS011;62035;52.094;5.112;2023-07-20T05:51:00;3.03;;;1.00;;
62030;SDS011;62035;52.094;5.112;2023-07-20T05:53:28;2.65;;;1.20;;
62030;SDS011;62035;52.094;5.112;2023-07-20T05:55:55;2.47;;;1.10;;
62030;SDS011;62035;52.094;5.112;2023-07-20T05:58:23;2.03;;;1.23;;
62030;SDS011;62035;52.094;5.112;2023-07-20T06:00:50;2.35;;;0.95;;
62030;SDS011;62035;52.094;5.112;2023-07-20T06:03:18;2.55;;;1.00;;
62030;SDS011;62035;52.094;5.112;2023-07-20T06:05:47;2.92;;;1.00;;
62030;SDS011;62035;52.094;5.112;2023-07-20T06:08:16;4.60;;;1.20;;
62030;SDS011;62035;52.094;5.112;2023-07-20T06:10:44;2.10;;;1.00;;
62030;SDS011;62035;52.094;5.112;2023-07-20T06:13:11;1.80;;;0.98;;
62030;SDS011;62035;52.094;5.112;2023-07-20T06:15:39;2.50;;;1.10;;
62030;SDS011;62035;52.094;5.112;2023-07-20T06:18:07;4.40;;;1.63;;
62030;SDS011;62035;52.094;5.112;2023-07-20T06:20:35;3.00;;;1.02;;
62030;SDS011;62035;52.094;5.112;2023-07-20T06:23:03;4.70;;;1.33;;
62030;SDS011;62035;52.094;5.112;2023-07-20T06:25:32;1.63;;;0.80;;
62030;SDS011;62035;52.094;5.112;2023-07-20T06:28:00;6.50;;;1.17;;
62030;SDS011;62035;52.094;5.112;2023-07-20T06:30:30;1.85;;;1.00;;
62030;SDS011;62035;52.094;5.112;2023-07-20T06:32:57;4.75;;;1.13;;
62030;SDS011;62035;52.094;5.112;2023-07-20T06:35:25;2.20;;;0.90;;
62030;SDS011;62035;52.094;5.112;2023-07-20T06:37:53;6.13;;;1.10;;
62030;SDS011;62035;52.094;5.112;2023-07-20T06:40:21;1.85;;;0.90;;
62030;SDS011;62035;52.094;5.112;2023-07-20T06:42:50;1.45;;;0.80;;
62030;SDS011;62035;52.094;5.112;2023-07-20T06:45:17;3.13;;;0.95;;
62030;SDS011;62035;52.094;5.112;2023-07-20T06:47:45;2.72;;;0.82;;
62030;SDS011;62035;52.094;5.112;2023-07-20T06:50:13;1.95;;;0.90;;
62030;SDS011;62035;52.094;5.112;2023-07-20T06:52:40;2.65;;;1.05;;
62030;SDS011;62035;52.094;5.112;2023-07-20T06:55:08;3.08;;;0.90;;
62030;SDS011;62035;52.094;5.112;2023-07-20T06:57:36;1.25;;;0.80;;
62030;SDS011;62035;52.094;5.112;2023-07-20T07:00:05;4.03;;;1.27;;
62030;SDS011;62035;52.094;5.112;2023-07-20T07:02:34;2.13;;;0.90;;
62030;SDS011;62035;52.094;5.112;2023-07-20T07:05:02;1.50;;;0.80;;
62030;SDS011;62035;52.094;5.112;2023-07-20T07:07:31;1.30;;;0.80;;
62030;SDS011;62035;52.094;5.112;2023-07-20T07:09:59;1.75;;;0.90;;
62030;SDS011;62035;52.094;5.112;2023-07-20T07:12:29;1.00;;;0.80;;
62030;SDS011;62035;52.094;5.112;2023-07-20T07:14:57;1.70;;;0.80;;
62030;SDS011;62035;52.094;5.112;2023-07-20T07:17:27;2.42;;;0.90;;
62030;SDS011;62035;52.094;5.112;2023-07-20T07:19:54;1.65;;;1.00;;
62030;SDS011;62035;52.094;5.112;2023-07-20T07:22:22;1.48;;;0.98;;
62030;SDS011;62035;52.094;5.112;2023-07-20T07:24:50;3.10;;;0.93;;
62030;SDS011;62035;52.094;5.112;2023-07-20T07:27:17;1.58;;;0.88;;
62030;SDS011;62035;52.094;5.112;2023-07-20T07:29:45;1.73;;;0.90;;
62030;SDS011;62035;52.094;5.112;2023-07-20T07:32:14;1.45;;;0.77;;
62030;SDS011;62035;52.094;5.112;2023-07-20T07:34:43;1.02;;;0.70;;
62030;SDS011;62035;52.094;5.112;2023-07-20T07:37:12;1.80;;;0.90;;
62030;SDS011;62035;52.094;5.112;2023-07-20T07:39:39;2.72;;;0.70;;
62030;SDS011;62035;52.094;5.112;2023-07-20T07:42:07;1.10;;;0.77;;
62030;SDS011;62035;52.094;5.112;2023-07-20T07:44:35;1.40;;;0.77;;
62030;SDS011;62035;52.094;5.112;2023-07-20T07:47:02;2.63;;;0.80;;
62030;SDS011;62035;52.094;5.112;2023-07-20T07:49:30;0.63;;;0.60;;
62030;SDS011;62035;52.094;5.112;2023-07-20T07:51:59;3.05;;;0.90;;
62030;SDS011;62035;52.094;5.112;2023-07-20T07:54:28;1.30;;;0.80;;
62030;SDS011;62035;52.094;5.112;2023-07-20T07:56:56;2.67;;;0.90;;
62030;SDS011;62035;52.094;5.112;2023-07-20T07:59:24;2.35;;;0.80;;
62030;SDS011;62035;52.094;5.112;2023-07-20T08:01:51;1.83;;;0.90;;
62030;SDS011;62035;52.094;5.112;2023-07-20T08:04:19;1.13;;;0.80;;
62030;SDS011;62035;52.094;5.112;2023-07-20T08:06:47;1.08;;;0.73;;
62030;SDS011;62035;52.094;5.112;2023-07-20T08:09:16;1.88;;;0.88;;
62030;SDS011;62035;52.094;5.112;2023-07-20T08:11:43;1.83;;;0.90;;
62030;SDS011;62035;52.094;5.112;2023-07-20T08:14:11;2.90;;;0.90;;
62030;SDS011;62035;52.094;5.112;2023-07-20T08:16:38;2.33;;;0.82;;
62030;SDS011;62035;52.094;5.112;2023-07-20T08:19:06;2.35;;;0.90;;
62030;SDS011;62035;52.094;5.112;2023-07-20T08:21:34;1.10;;;0.75;;
62030;SDS011;62035;52.094;5.112;2023-07-20T08:24:01;3.08;;;0.95;;
62030;SDS011;62035;52.094;5.112;2023-07-20T08:26:30;1.08;;;0.57;;
62030;SDS011;62035;52.094;5.112;2023-07-20T08:28:58;1.20;;;0.73;;
62030;SDS011;62035;52.094;5.112;2023-07-20T08:31:25;1.08;;;0.80;;
62030;SDS011;62035;52.094;5.112;2023-07-20T08:33:53;1.55;;;0.60;;
62030;SDS011;62035;52.094;5.112;2023-07-20T08:36:22;1.75;;;0.80;;
62030;SDS011;62035;52.094;5.112;2023-07-20T08:38:50;1.13;;;0.80;;
62030;SDS011;62035;52.094;5.112;2023-07-20T08:41:18;1.00;;;0.70;;
62030;SDS011;62035;52.094;5.112;2023-07-20T08:43:47;1.60;;;0.73;;
62030;SDS011;62035;52.094;5.112;2023-07-20T08:46:16;2.30;;;0.85;;
62030;SDS011;62035;52.094;5.112;2023-07-20T08:48:44;2.47;;;0.88;;
62030;SDS011;62035;52.094;5.112;2023-07-20T08:51:14;2.33;;;0.90;;
62030;SDS011;62035;52.094;5.112;2023-07-20T08:53:44;3.60;;;0.90;;
62030;SDS011;62035;52.094;5.112;2023-07-20T08:56:15;3.50;;;0.93;;
62030;SDS011;62035;52.094;5.112;2023-07-20T08:58:44;2.10;;;0.90;;
62030;SDS011;62035;52.094;5.112;2023-07-20T09:01:15;1.10;;;0.80;;
62030;SDS011;62035;52.094;5.112;2023-07-20T09:03:46;4.28;;;0.80;;
62030;SDS011;62035;52.094;5.112;2023-07-20T09:06:14;3.92;;;1.13;;
62030;SDS011;62035;52.094;5.112;2023-07-20T09:08:42;2.15;;;0.90;;
62030;SDS011;62035;52.094;5.112;2023-07-20T09:11:11;1.58;;;0.90;;
62030;SDS011;62035;52.094;5.112;2023-07-20T09:13:40;4.60;;;0.80;;
62030;SDS011;62035;52.094;5.112;2023-07-20T09:16:10;1.73;;;0.90;;
62030;SDS011;62035;52.094;5.112;2023-07-20T09:18:41;2.00;;;0.82;;
62030;SDS011;62035;52.094;5.112;2023-07-20T09:21:09;3.08;;;1.42;;
62030;SDS011;62035;52.094;5.112;2023-07-20T09:23:37;2.63;;;1.10;;
62030;SDS011;62035;52.094;5.112;2023-07-20T09:26:09;3.60;;;1.00;;
62030;SDS011;62035;52.094;5.112;2023-07-20T09:28:41;1.85;;;1.00;;
62030;SDS011;62035;52.094;5.112;2023-07-20T09:31:16;3.33;;;1.10;;
62030;SDS011;62035;52.094;5.112;2023-07-20T09:33:45;1.13;;;0.88;;
62030;SDS011;62035;52.094;5.112;2023-07-20T09:36:15;5.78;;;2.95;;
62030;SDS011;62035;52.094;5.112;2023-07-20T09:38:42;1.48;;;0.90;;
62030;SDS011;62035;52.094;5.112;2023-07-20T09:41:12;3.58;;;0.90;;
62030;SDS011;62035;52.094;5.112;2023-07-20T09:43:43;1.45;;;0.90;;
62030;SDS011;62035;52.094;5.112;2023-07-20T09:46:12;3.08;;;1.00;;
62030;SDS011;62035;52.094;5.112;2023-07-20T09:48:48;2.78;;;1.15;;
62030;SDS011;62035;52.094;5.112;2023-07-20T09:51:20;2.47;;;0.73;;
62030;SDS011;62035;52.094;5.112;2023-07-20T09:53:50;2.17;;;0.93;;
62030;SDS011;62035;52.094;5.112;2023-07-20T09:56:21;1.40;;;0.85;;
62030;SDS011;62035;52.094;5.112;2023-07-20T09:58:50;2.20;;;0.82;;
62030;SDS011;62035;52.094;5.112;2023-07-20T10:01:17;0.93;;;0.70;;
62030;SDS011;62035;52.094;5.112;2023-07-20T10:03:49;0.98;;;0.77;;
62030;SDS011;62035;52.094;5.112;2023-07-20T10:06:23;1.52;;;0.93;;
62030;SDS011;62035;52.094;5.112;2023-07-20T10:08:52;2.10;;;0.90;;
62030;SDS011;62035;52.094;5.112;2023-07-20T10:11:28;2.38;;;0.85;;
62030;SDS011;62035;52.094;5.112;2023-07-20T10:14:03;1.70;;;0.90;;
62030;SDS011;62035;52.094;5.112;2023-07-20T10:16:34;2.95;;;1.00;;
62030;SDS011;62035;52.094;5.112;2023-07-20T10:19:07;1.08;;;0.70;;
62030;SDS011;62035;52.094;5.112;2023-07-20T10:21:51;2.70;;;1.10;;
62030;SDS011;62035;52.094;5.112;2023-07-20T10:24:30;2.38;;;1.00;;
62030;SDS011;62035;52.094;5.112;2023-07-20T10:27:01;4.38;;;1.23;;
62030;SDS011;62035;52.094;5.112;2023-07-20T10:29:29;1.48;;;0.90;;
62030;SDS011;62035;52.094;5.112;2023-07-20T10:31:58;2.88;;;1.00;;
62030;SDS011;62035;52.094;5.112;2023-07-20T10:34:29;3.75;;;1.00;;
62030;SDS011;62035;52.094;5.112;2023-07-20T10:36:57;2.05;;;0.90;;
62030;SDS011;62035;52.094;5.112;2023-07-20T10:39:24;2.53;;;1.00;;
62030;SDS011;62035;52.094;5.112;2023-07-20T10:42:00;1.95;;;0.95;;
62030;SDS011;62035;52.094;5.112;2023-07-20T10:44:29;1.65;;;0.93;;
62030;SDS011;62035;52.094;5.112;2023-07-20T10:47:00;4.40;;;1.00;;
62030;SDS011;62035;52.094;5.112;2023-07-20T10:49:34;1.27;;;0.90;;
62030;SDS011;62035;52.094;5.112;2023-07-20T10:52:03;2.10;;;0.90;;
62030;SDS011;62035;52.094;5.112;2023-07-20T10:54:34;1.30;;;0.90;;
62030;SDS011;62035;52.094;5.112;2023-07-20T10:57:22;2.13;;;1.10;;
62030;SDS011;62035;52.094;5.112;2023-07-20T11:00:07;2.97;;;1.05;;
62030;SDS011;62035;52.094;5.112;2023-07-20T11:02:44;1.80;;;1.00;;
62030;SDS011;62035;52.094;5.112;2023-07-20T11:05:33;2.38;;;0.90;;
62030;SDS011;62035;52.094;5.112;2023-07-20T11:08:04;2.78;;;1.45;;
62030;SDS011;62035;52.094;5.112;2023-07-20T11:10:36;1.50;;;1.00;;
62030;SDS011;62035;52.094;5.112;2023-07-20T11:13:16;1.85;;;1.02;;
62030;SDS011;62035;52.094;5.112;2023-07-20T11:16:03;2.67;;;1.20;;
62030;SDS011;62035;52.094;5.112;2023-07-20T11:18:34;5.05;;;1.20;;
62030;SDS011;62035;52.094;5.112;2023-07-20T11:21:08;1.50;;;0.90;;
62030;SDS011;62035;52.094;5.112;2023-07-20T11:23:38;2.63;;;1.05;;
62030;SDS011;62035;52.094;5.112;2023-07-20T11:26:07;3.55;;;1.20;;
62030;SDS011;62035;52.094;5.112;2023-07-20T11:28:35;3.78;;;1.15;;
62030;SDS011;62035;52.094;5.112;2023-07-20T11:31:03;3.53;;;1.08;;
62030;SDS011;62035;52.094;5.112;2023-07-20T11:33:30;6.32;;;1.00;;
62030;SDS011;62035;52.094;5.112;2023-07-20T11:35:58;1.33;;;0.93;;
62030;SDS011;62035;52.094;5.112;2023-07-20T11:38:27;2.05;;;1.10;;
62030;SDS011;62035;52.094;5.112;2023-07-20T11:40:55;2.85;;;1.20;;
62030;SDS011;62035;52.094;5.112;2023-07-20T11:43:24;3.28;;;1.13;;
62030;SDS011;62035;52.094;5.112;2023-07-20T11:45:52;5.63;;;1.90;;
62030;SDS011;62035;52.094;5.112;2023-07-20T11:48:19;6.88;;;0.90;;
62030;SDS011;62035;52.094;5.112;2023-07-20T11:50:47;4.40;;;1.00;;
62030;SDS011;62035;52.094;5.112;2023-07-20T11:53:15;2.78;;;1.00;;
62030;SDS011;62035;52.094;5.112;2023-07-20T11:55:45;2.55;;;0.90;;
62030;SDS011;62035;52.094;5.112;2023-07-20T11:58:13;1.67;;;1.00;;
62030;SDS011;62035;52.094;5.112;2023-07-20T12:00:43;2.00;;;1.08;;
62030;SDS011;62035;52.094;5.112;2023-07-20T12:03:12;3.15;;;1.60;;
62030;SDS011;62035;52.094;5.112;2023-07-20T12:05:39;1.42;;;0.90;;
62030;SDS011;62035;52.094;5.112;2023-07-20T12:08:07;1.42;;;0.75;;
62030;SDS011;62035;52.094;5.112;2023-07-20T12:10:38;2.40;;;1.10;;
62030;SDS011;62035;52.094;5.112;2023-07-20T12:13:11;2.25;;;1.20;;
62030;SDS011;62035;52.094;5.112;2023-07-20T12:15:38;1.98;;;0.98;;
62030;SDS011;62035;52.094;5.112;2023-07-20T12:18:06;1.95;;;1.00;;
62030;SDS011;62035;52.094;5.112;2023-07-20T12:20:35;2.00;;;1.00;;
62030;SDS011;62035;52.094;5.112;2023-07-20T12:23:04;2.97;;;0.90;;
62030;SDS011;62035;52.094;5.112;2023-07-20T12:25:39;2.70;;;1.02;;
62030;SDS011;62035;52.094;5.112;2023-07-20T12:28:08;2.33;;;1.00;;
62030;SDS011;62035;52.094;5.112;2023-07-20T12:33:08;3.70;;;1.00;;
62030;SDS011;62035;52.094;5.112;2023-07-20T12:35:36;2.45;;;1.40;;
62030;SDS011;62035;52.094;5.112;2023-07-20T12:38:04;5.10;;;1.73;;
62030;SDS011;62035;52.094;5.112;2023-07-20T12:40:32;3.50;;;1.30;;
62030;SDS011;62035;52.094;5.112;2023-07-20T12:43:00;1.92;;;1.00;;
62030;SDS011;62035;52.094;5.112;2023-07-20T12:45:29;1.52;;;1.00;;
62030;SDS011;62035;52.094;5.112;2023-07-20T12:47:57;2.10;;;1.10;;
62030;SDS011;62035;52.094;5.112;2023-07-20T12:50:25;1.45;;;1.08;;
62030;SDS011;62035;52.094;5.112;2023-07-20T12:52:54;4.10;;;1.35;;
62030;SDS011;62035;52.094;5.112;2023-07-20T12:55:21;2.08;;;1.20;;
62030;SDS011;62035;52.094;5.112;2023-07-20T12:57:49;7.05;;;1.90;;
62030;SDS011;62035;52.094;5.112;2023-07-20T13:00:17;4.35;;;1.30;;
62030;SDS011;62035;52.094;5.112;2023-07-20T13:02:46;2.97;;;0.98;;
62030;SDS011;62035;52.094;5.112;2023-07-20T13:05:14;3.72;;;1.20;;
62030;SDS011;62035;52.094;5.112;2023-07-20T13:07:42;1.75;;;1.00;;
62030;SDS011;62035;52.094;5.112;2023-07-20T13:10:10;1.58;;;1.02;;
62030;SDS011;62035;52.094;5.112;2023-07-20T13:12:39;2.28;;;1.27;;
62030;SDS011;62035;52.094;5.112;2023-07-20T13:15:07;5.65;;;3.15;;
62030;SDS011;62035;52.094;5.112;2023-07-20T13:17:37;5.00;;;1.27;;
62030;SDS011;62035;52.094;5.112;2023-07-20T13:20:08;1.88;;;1.20;;
62030;SDS011;62035;52.094;5.112;2023-07-20T13:22:37;3.15;;;1.50;;
62030;SDS011;62035;52.094;5.112;2023-07-20T13:25:06;6.65;;;1.88;;
62030;SDS011;62035;52.094;5.112;2023-07-20T13:27:35;4.05;;;1.10;;
62030;SDS011;62035;52.094;5.112;2023-07-20T13:30:04;6.38;;;2.38;;
62030;SDS011;62035;52.094;5.112;2023-07-20T13:32:35;4.78;;;1.98;;
62030;SDS011;62035;52.094;5.112;2023-07-20T13:35:03;2.00;;;1.20;;
62030;SDS011;62035;52.094;5.112;2023-07-20T13:37:33;4.15;;;1.00;;
62030;SDS011;62035;52.094;5.112;2023-07-20T13:40:01;1.45;;;0.80;;
62030;SDS011;62035;52.094;5.112;2023-07-20T13:42:30;2.47;;;1.25;;
62030;SDS011;62035;52.094;5.112;2023-07-20T13:44:58;3.92;;;1.48;;
62030;SDS011;62035;52.094;5.112;2023-07-20T13:47:26;4.90;;;1.15;;
62030;SDS011;62035;52.094;5.112;2023-07-20T13:49:55;4.35;;;1.35;;
62030;SDS011;62035;52.094;5.112;2023-07-20T13:52:22;3.45;;;1.73;;
62030;SDS011;62035;52.094;5.112;2023-07-20T13:54:51;2.78;;;1.10;;
62030;SDS011;62035;52.094;5.112;2023-07-20T13:57:19;3.72;;;1.13;;
62030;SDS011;62035;52.094;5.112;2023-07-20T13:59:47;1.63;;;1.00;;
62030;SDS011;62035;52.094;5.112;2023-07-20T14:02:14;10.57;;;2.60;;
62030;SDS011;62035;52.094;5.112;2023-07-20T14:04:42;2.95;;;1.20;;
62030;SDS011;62035;52.094;5.112;2023-07-20T14:07:10;4.97;;;1.40;;
62030;SDS011;62035;52.094;5.112;2023-07-20T14:09:39;3.53;;;1.33;;
62030;SDS011;62035;52.094;5.112;2023-07-20T14:12:08;3.42;;;1.05;;
62030;SDS011;62035;52.094;5.112;2023-07-20T14:14:39;3.60;;;1.30;;
62030;SDS011;62035;52.094;5.112;2023-07-20T14:17:07;4.13;;;1.23;;
62030;SDS011;62035;52.094;5.112;2023-07-20T14:19:36;4.50;;;1.20;;
62030;SDS011;62035;52.094;5.112;2023-07-20T14:22:05;2.47;;;1.10;;
62030;SDS011;62035;52.094;5.112;2023-07-20T14:24:33;3.50;;;1.00;;
62030;SDS011;62035;52.094;5.112;2023-07-20T14:27:00;1.95;;;1.00;;
62030;SDS011;62035;52.094;5.112;2023-07-20T14:29:29;2.53;;;0.90;;
62030;SDS011;62035;52.094;5.112;2023-07-20T14:31:58;1.50;;;0.90;;
62030;SDS011;62035;52.094;5.112;2023-07-20T14:34:26;2.78;;;1.02;;
62030;SDS011;62035;52.094;5.112;2023-07-20T14:36:53;2.45;;;0.90;;
62030;SDS011;62035;52.094;5.112;2023-07-20T14:39:21;1.38;;;0.80;;
62030;SDS011;62035;52.094;5.112;2023-07-20T14:41:49;2.28;;;0.90;;
62030;SDS011;62035;52.094;5.112;2023-07-20T14:44:17;2.30;;;0.90;;
62030;SDS011;62035;52.094;5.112;2023-07-20T14:46:47;1.08;;;0.75;;
62030;SDS011;62035;52.094;5.112;2023-07-20T14:49:16;1.52;;;0.90;;
62030;SDS011;62035;52.094;5.112;2023-07-20T14:51:44;4.60;;;0.90;;
62030;SDS011;62035;52.094;5.112;2023-07-20T14:54:12;1.27;;;0.90;;
62030;SDS011;62035;52.094;5.112;2023-07-20T14:56:47;1.58;;;0.80;;
62030;SDS011;62035;52.094;5.112;2023-07-20T14:59:18;2.45;;;1.00;;
62030;SDS011;62035;52.094;5.112;2023-07-20T15:01:48;3.35;;;0.88;;
62030;SDS011;62035;52.094;5.112;2023-07-20T15:04:15;2.40;;;1.02;;